sensor_id;sensor_type;location;lat;lon;timestamp;pressure;altitude;pressure_sealevel;temperature;humidity
20620;BME280;10469;42.720;23.252;2023-08-30T00:00:49;94000.13;;;20.33;100.00
20620;BME280;10469;42.720;23.252;2023-08-30T00:03:15;93999.66;;;20.22;100.00
20620;BME280;10469;42.720;23.252;2023-08-30T00:05:41;93997.72;;;20.14;100.00
20620;BME280;10469;42.720;23.252;2023-08-30T00:08:07;93987.25;;;19.90;100.00
20620;BME280;10469;42.720;23.252;2023-08-30T00:10:33;93981.16;;;19.84;100.00
20620;BME280;10469;42.720;23.252;2023-08-30T00:12:59;93984.16;;;19.65;100.00
20620;BME280;10469;42.720;23.252;2023-08-30T00:15:25;93977.75;;;19.61;100.00
20620;BME280;10469;42.720;23.252;2023-08-30T00:17:51;93996.53;;;19.49;100.00
20620;BME280;10469;42.720;23.252;2023-08-30T00:20:20;94006.88;;;19.61;100.00
20620;BME280;10469;42.720;23.252;2023-08-30T00:22:47;94012.34;;;19.69;100.00
20620;BME280;10469;42.720;23.252;2023-08-30T00:25:16;94004.88;;;19.52;100.00
20620;BME280;10469;42.720;23.252;2023-08-30T00:27:42;93992.19;;;19.70;100.00
20620;BME280;10469;42.720;23.252;2023-08-30T00:30:08;93996.63;;;19.66;100.00
20620;BME280;10469;42.720;23.252;2023-08-30T00:32:35;93982.47;;;19.87;100.00
20620;BME280;10469;42.720;23.252;2023-08-30T00:35:01;93984.69;;;19.85;100.00
20620;BME280;10469;42.720;23.252;2023-08-30T00:37:27;93971.31;;;19.57;100.00
20620;BME280;10469;42.720;23.252;2023-08-30T00:39:53;93994.31;;;19.91;100.00
20620;BME280;10469;42.720;23.252;2023-08-30T00:42:18;93986.91;;;19.43;100.00
20620;BME280;10469;42.720;23.252;2023-08-30T00:44:44;93995.53;;;19.67;100.00
20620;BME280;10469;42.720;23.252;2023-08-30T00:47:10;93990.44;;;19.74;100.00
20620;BME280;10469;42.720;23.252;2023-08-30T00:49:36;93976.47;;;19.67;100.00
20620;BME280;10469;42.720;23.252;2023-08-30T00:52:06;94005.31;;;19.86;100.00
20620;BME280;10469;42.720;23.252;2023-08-30T00:54:33;94012.88;;;19.89;100.00
20620;BME280;10469;42.720;23.252;2023-08-30T00:57:00;94017.34;;;19.93;100.00
20620;BME280;10469;42.720;23.252;2023-08-30T00:59:27;94008.09;;;20.03;100.00
20620;BME280;10469;42.720;23.252;2023-08-30T01:01:52;94000.22;;;19.93;100.00
20620;BME280;10469;42.720;23.252;2023-08-30T01:04:19;94008.22;;;19.89;100.00
20620;BME280;10469;42.720;23.252;2023-08-30T01:06:45;93995.91;;;19.83;100.00
20620;BME280;10469;42.720;23.252;2023-08-30T01:09:11;94006.63;;;19.88;100.00
20620;BME280;10469;42.720;23.252;2023-08-30T01:12:23;94005.50;;;19.89;100.00
20620;BME280;10469;42.720;23.252;2023-08-30T01:15:06;94004.69;;;19.80;100.00
20620;BME280;10469;42.720;23.252;2023-08-30T01:17:35;93991.88;;;19.80;100.00
20620;BME280;10469;42.720;23.252;2023-08-30T01:20:06;94004.69;;;19.89;100.00
20620;BME280;10469;42.720;23.252;2023-08-30T01:28:31;94014.81;;;19.97;100.00
20620;BME280;10469;42.720;23.252;2023-08-30T01:30:59;94024.16;;;20.22;100.00
20620;BME280;10469;42.720;23.252;2023-08-30T01:33:26;94023.19;;;20.26;100.00
20620;BME280;10469;42.720;23.252;2023-08-30T01:35:56;94009.56;;;20.18;100.00
20620;BME280;10469;42.720;23.252;2023-08-30T01:38:25;94005.25;;;20.08;100.00
20620;BME280;10469;42.720;23.252;2023-08-30T01:40:52;93997.91;;;20.17;100.00
20620;BME280;10469;42.720;23.252;2023-08-30T01:43:19;93993.53;;;20.16;100.00
20620;BME280;10469;42.720;23.252;2023-08-30T01:45:46;93993.69;;;20.11;100.00
20620;BME280;10469;42.720;23.252;2023-08-30T01:48:14;94000.44;;;20.14;100.00
20620;BME280;10469;42.720;23.252;2023-08-30T01:50:43;93999.81;;;20.08;100.00
20620;BME280;10469;42.720;23.252;2023-08-30T01:53:11;94012.56;;;19.99;100.00
20620;BME280;10469;42.720;23.252;2023-08-30T01:55:37;94015.25;;;19.90;100.00
20620;BME280;10469;42.720;23.252;2023-08-30T01:58:05;94021.06;;;19.97;100.00
20620;BME280;10469;42.720;23.252;2023-08-30T02:00:30;94006.31;;;19.90;100.00
20620;BME280;10469;42.720;23.252;2023-08-30T02:02:56;93994.41;;;19.68;100.00
20620;BME280;10469;42.720;23.252;2023-08-30T02:05:22;94009.50;;;19.83;100.00
20620;BME280;10469;42.720;23.252;2023-08-30T02:07:58;94024.34;;;19.77;100.00
20620;BME280;10469;42.720;23.252;2023-08-30T02:10:34;94029.97;;;19.80;100.00
20620;BME280;10469;42.720;23.252;2023-08-30T02:13:02;94023.53;;;19.76;100.00
20620;BME280;10469;42.720;23.252;2023-08-30T02:15:30;94022.66;;;19.59;100.00
20620;BME280;10469;42.720;23.252;2023-08-30T02:17:57;94021.69;;;19.23;100.00
20620;BME280;10469;42.720;23.252;2023-08-30T02:20:23;94027.16;;;18.78;100.00
20620;BME280;10469;42.720;23.252;2023-08-30T02:22:49;94007.09;;;18.52;100.00
20620;BME280;10469;42.720;23.252;2023-08-30T02:25:15;94013.09;;;18.40;100.00
20620;BME280;10469;42.720;23.252;2023-08-30T02:27:42;94019.53;;;18.30;100.00
20620;BME280;10469;42.720;23.252;2023-08-30T02:30:08;94026.53;;;18.45;100.00
20620;BME280;10469;42.720;23.252;2023-08-30T02:32:34;94010.81;;;18.56;100.00
20620;BME280;10469;42.720;23.252;2023-08-30T02:35:00;94011.44;;;18.53;100.00
20620;BME280;10469;42.720;23.252;2023-08-30T02:37:25;94016.09;;;18.97;100.00
20620;BME280;10469;42.720;23.252;2023-08-30T02:39:51;94012.34;;;18.85;100.00
20620;BME280;10469;42.720;23.252;2023-08-30T02:42:17;94013.06;;;18.99;100.00
20620;BME280;10469;42.720;23.252;2023-08-30T02:44:42;94007.38;;;19.09;100.00
20620;BME280;10469;42.720;23.252;2023-08-30T02:47:08;94001.91;;;19.00;100.00
20620;BME280;10469;42.720;23.252;2023-08-30T02:49:34;94002.94;;;18.91;100.00
20620;BME280;10469;42.720;23.252;2023-08-30T02:51:59;94012.25;;;18.98;100.00
20620;BME280;10469;42.720;23.252;2023-08-30T02:54:25;94004.28;;;19.02;100.00
20620;BME280;10469;42.720;23.252;2023-08-30T02:56:51;93996.16;;;19.02;100.00
20620;BME280;10469;42.720;23.252;2023-08-30T02:59:16;93993.00;;;19.09;100.00
20620;BME280;10469;42.720;23.252;2023-08-30T03:01:42;93988.22;;;19.14;100.00
20620;BME280;10469;42.720;23.252;2023-08-30T03:04:08;93989.53;;;19.25;100.00
20620;BME280;10469;42.720;23.252;2023-08-30T03:06:35;93996.78;;;19.30;100.00
20620;BME280;10469;42.720;23.252;2023-08-30T03:09:01;94003.03;;;19.30;100.00
20620;BME280;10469;42.720;23.252;2023-08-30T03:11:28;94006.69;;;19.26;100.00
20620;BME280;10469;42.720;23.252;2023-08-30T03:13:54;94010.06;;;19.32;100.00
20620;BME280;10469;42.720;23.252;2023-08-30T03:16:20;94015.97;;;19.34;100.00
20620;BME280;10469;42.720;23.252;2023-08-30T03:18:46;94003.31;;;19.29;100.00
20620;BME280;10469;42.720;23.252;2023-08-30T03:21:12;93991.84;;;19.32;100.00
20620;BME280;10469;42.720;23.252;2023-08-30T03:23:39;93992.16;;;19.30;100.00
20620;BME280;10469;42.720;23.252;2023-08-30T03:26:15;93983.78;;;19.18;100.00
20620;BME280;10469;42.720;23.252;2023-08-30T03:28:42;93972.59;;;19.20;100.00
20620;BME280;10469;42.720;23.252;2023-08-30T03:31:17;93983.78;;;19.18;100.00
20620;BME280;10469;42.720;23.252;2023-08-30T03:33:44;93982.78;;;19.14;100.00
20620;BME280;10469;42.720;23.252;2023-08-30T03:36:11;93967.09;;;19.11;100.00
20620;BME280;10469;42.720;23.252;2023-08-30T03:38:38;93979.13;;;18.88;100.00
20620;BME280;10469;42.720;23.252;2023-08-30T03:41:04;93977.44;;;19.00;100.00
20620;BME280;10469;42.720;23.252;2023-08-30T03:43:32;93974.34;;;18.93;100.00
20620;BME280;10469;42.720;23.252;2023-08-30T03:45:59;93983.53;;;19.06;100.00
20620;BME280;10469;42.720;23.252;2023-08-30T03:48:26;93977.13;;;19.02;100.00
20620;BME280;10469;42.720;23.252;2023-08-30T03:50:52;93982.19;;;19.17;100.00
20620;BME280;10469;42.720;23.252;2023-08-30T03:53:18;93991.41;;;19.16;100.00
20620;BME280;10469;42.720;23.252;2023-08-30T03:55:44;94005.16;;;19.11;100.00
20620;BME280;10469;42.720;23.252;2023-08-30T03:58:10;93999.16;;;19.23;100.00
20620;BME280;10469;42.720;23.252;2023-08-30T04:00:36;94016.94;;;19.38;100.00
20620;BME280;10469;42.720;23.252;2023-08-30T04:03:03;94016.38;;;19.49;100.00
20620;BME280;10469;42.720;23.252;2023-08-30T04:05:33;94006.91;;;19.69;100.00
20620;BME280;10469;42.720;23.252;2023-08-30T04:07:59;94000.53;;;19.83;100.00
20620;BME280;10469;42.720;23.252;2023-08-30T04:10:25;93999.81;;;20.25;100.00
20620;BME280;10469;42.720;23.252;2023-08-30T04:12:50;93973.69;;;20.16;100.00
20620;BME280;10469;42.720;23.252;2023-08-30T04:15:16;94000.09;;;20.07;100.00
20620;BME280;10469;42.720;23.252;2023-08-30T04:17:42;94006.06;;;20.17;100.00
20620;BME280;10469;42.720;23.252;2023-08-30T04:20:08;94033.66;;;20.59;100.00
20620;BME280;10469;42.720;23.252;2023-08-30T04:22:36;94022.06;;;21.23;100.00
20620;BME280;10469;42.720;23.252;2023-08-30T04:25:02;94028.03;;;21.81;100.00
20620;BME280;10469;42.720;23.252;2023-08-30T04:27:28;94023.78;;;21.92;100.00
20620;BME280;10469;42.720;23.252;2023-08-30T04:29:53;94033.03;;;21.70;100.00
20620;BME280;10469;42.720;23.252;2023-08-30T04:32:19;94067.03;;;21.81;100.00
20620;BME280;10469;42.720;23.252;2023-08-30T04:34:45;94093.69;;;21.75;100.00
20620;BME280;10469;42.720;23.252;2023-08-30T04:37:10;94098.13;;;21.16;100.00
20620;BME280;10469;42.720;23.252;2023-08-30T04:39:36;94085.44;;;20.94;100.00
20620;BME280;10469;42.720;23.252;2023-08-30T04:42:02;94055.56;;;20.37;100.00
20620;BME280;10469;42.720;23.252;2023-08-30T04:44:28;94071.09;;;20.45;100.00
20620;BME280;10469;42.720;23.252;2023-08-30T04:46:54;94090.56;;;20.69;100.00
20620;BME280;10469;42.720;23.252;2023-08-30T04:49:20;94099.53;;;20.78;100.00
20620;BME280;10469;42.720;23.252;2023-08-30T04:51:47;94104.38;;;20.90;100.00
20620;BME280;10469;42.720;23.252;2023-08-30T04:54:13;94109.16;;;20.76;100.00
20620;BME280;10469;42.720;23.252;2023-08-30T04:56:39;94091.50;;;20.56;100.00
20620;BME280;10469;42.720;23.252;2023-08-30T04:59:05;94059.25;;;19.84;100.00
20620;BME280;10469;42.720;23.252;2023-08-30T05:01:30;94050.75;;;19.76;100.00
20620;BME280;10469;42.720;23.252;2023-08-30T05:03:56;94065.81;;;19.83;100.00
20620;BME280;10469;42.720;23.252;2023-08-30T05:06:22;94073.59;;;19.44;100.00
20620;BME280;10469;42.720;23.252;2023-08-30T05:08:47;94076.63;;;19.43;100.00
20620;BME280;10469;42.720;23.252;2023-08-30T05:11:13;94068.28;;;19.62;100.00
20620;BME280;10469;42.720;23.252;2023-08-30T05:13:39;94056.28;;;19.32;100.00
20620;BME280;10469;42.720;23.252;2023-08-30T05:16:05;94077.19;;;19.53;100.00
20620;BME280;10469;42.720;23.252;2023-08-30T05:18:31;94076.50;;;19.70;100.00
20620;BME280;10469;42.720;23.252;2023-08-30T05:20:56;94078.38;;;20.01;100.00
20620;BME280;10469;42.720;23.252;2023-08-30T05:23:22;94077.41;;;20.80;100.00
20620;BME280;10469;42.720;23.252;2023-08-30T05:25:48;94068.84;;;21.68;100.00
20620;BME280;10469;42.720;23.252;2023-08-30T05:28:14;94057.44;;;22.13;100.00
20620;BME280;10469;42.720;23.252;2023-08-30T05:30:42;94071.34;;;23.00;100.00
20620;BME280;10469;42.720;23.252;2023-08-30T05:33:09;94066.78;;;22.84;100.00
20620;BME280;10469;42.720;23.252;2023-08-30T05:35:34;94076.56;;;22.93;100.00
20620;BME280;10469;42.720;23.252;2023-08-30T05:38:00;94077.50;;;24.09;100.00
20620;BME280;10469;42.720;23.252;2023-08-30T05:40:26;94060.88;;;24.51;100.00
20620;BME280;10469;42.720;23.252;2023-08-30T05:42:51;94066.38;;;23.36;100.00
20620;BME280;10469;42.720;23.252;2023-08-30T05:45:17;94074.78;;;23.31;100.00
20620;BME280;10469;42.720;23.252;2023-08-30T05:47:43;94055.41;;;23.23;100.00
20620;BME280;10469;42.720;23.252;2023-08-30T05:50:09;94064.16;;;24.69;100.00
20620;BME280;10469;42.720;23.252;2023-08-30T05:52:34;94066.13;;;24.56;100.00
20620;BME280;10469;42.720;23.252;2023-08-30T05:55:00;94064.28;;;24.60;100.00
20620;BME280;10469;42.720;23.252;2023-08-30T05:57:26;94065.25;;;24.92;100.00
20620;BME280;10469;42.720;23.252;2023-08-30T05:59:52;94057.06;;;24.80;100.00
20620;BME280;10469;42.720;23.252;2023-08-30T06:02:18;94050.75;;;25.32;100.00
20620;BME280;10469;42.720;23.252;2023-08-30T06:04:44;94062.50;;;25.05;100.00
20620;BME280;10469;42.720;23.252;2023-08-30T06:07:09;94058.72;;;25.65;100.00
20620;BME280;10469;42.720;23.252;2023-08-30T06:09:35;94054.69;;;26.22;100.00
20620;BME280;10469;42.720;23.252;2023-08-30T06:12:01;94055.97;;;26.76;100.00
20620;BME280;10469;42.720;23.252;2023-08-30T06:14:27;94048.06;;;25.48;100.00
20620;BME280;10469;42.720;23.252;2023-08-30T06:16:52;94048.91;;;25.80;100.00
20620;BME280;10469;42.720;23.252;2023-08-30T06:19:18;94063.56;;;25.56;100.00
20620;BME280;10469;42.720;23.252;2023-08-30T06:21:44;94060.09;;;26.19;100.00
20620;BME280;10469;42.720;23.252;2023-08-30T06:24:10;94057.22;;;26.63;100.00
20620;BME280;10469;42.720;23.252;2023-08-30T06:26:35;94067.28;;;27.25;100.00
20620;BME280;10469;42.720;23.252;2023-08-30T06:29:01;94061.59;;;29.55;96.48
20620;BME280;10469;42.720;23.252;2023-08-30T06:31:26;94072.66;;;28.22;98.17
20620;BME280;10469;42.720;23.252;2023-08-30T06:33:54;94054.28;;;26.71;100.00
20620;BME280;10469;42.720;23.252;2023-08-30T06:36:20;94059.28;;;28.01;99.30
20620;BME280;10469;42.720;23.252;2023-08-30T06:38:48;94073.16;;;28.51;97.70
20620;BME280;10469;42.720;23.252;2023-08-30T06:41:13;94077.47;;;29.32;91.48
20620;BME280;10469;42.720;23.252;2023-08-30T06:43:39;94077.09;;;28.50;98.58
20620;BME280;10469;42.720;23.252;2023-08-30T06:46:05;94065.50;;;26.15;100.00
20620;BME280;10469;42.720;23.252;2023-08-30T06:48:30;94076.56;;;24.91;100.00
20620;BME280;10469;42.720;23.252;2023-08-30T06:50:59;94074.75;;;23.51;100.00
20620;BME280;10469;42.720;23.252;2023-08-30T06:53:26;94079.41;;;22.76;100.00
20620;BME280;10469;42.720;23.252;2023-08-30T06:55:59;94088.09;;;22.99;100.00
20620;BME280;10469;42.720;23.252;2023-08-30T06:58:25;94087.00;;;24.36;100.00
20620;BME280;10469;42.720;23.252;2023-08-30T07:00:50;94074.34;;;25.93;100.00
20620;BME280;10469;42.720;23.252;2023-08-30T07:03:16;94079.63;;;25.14;100.00
20620;BME280;10469;42.720;23.252;2023-08-30T07:05:42;94079.25;;;25.99;100.00
20620;BME280;10469;42.720;23.252;2023-08-30T07:08:09;94057.09;;;27.68;100.00
20620;BME280;10469;42.720;23.252;2023-08-30T07:10:35;94067.31;;;26.74;100.00
20620;BME280;10469;42.720;23.252;2023-08-30T07:13:01;94076.22;;;27.81;100.00
20620;BME280;10469;42.720;23.252;2023-08-30T07:15:26;94081.59;;;29.15;91.70
20620;BME280;10469;42.720;23.252;2023-08-30T07:17:52;94067.97;;;29.96;85.28
20620;BME280;10469;42.720;23.252;2023-08-30T07:20:18;94065.63;;;29.01;87.32
20620;BME280;10469;42.720;23.252;2023-08-30T07:22:43;94073.31;;;27.93;95.69
20620;BME280;10469;42.720;23.252;2023-08-30T07:25:09;94068.16;;;29.13;90.50
20620;BME280;10469;42.720;23.252;2023-08-30T07:27:39;94064.38;;;28.22;94.25
20620;BME280;10469;42.720;23.252;2023-08-30T07:30:05;94077.94;;;28.81;89.48
20620;BME280;10469;42.720;23.252;2023-08-30T07:32:31;94084.44;;;29.52;87.22
20620;BME280;10469;42.720;23.252;2023-08-30T07:34:57;94078.63;;;30.80;77.36
20620;BME280;10469;42.720;23.252;2023-08-30T07:37:22;94082.94;;;28.98;84.83
20620;BME280;10469;42.720;23.252;2023-08-30T07:39:48;94078.63;;;28.74;89.33
20620;BME280;10469;42.720;23.252;2023-08-30T07:42:14;94080.19;;;28.71;89.62
20620;BME280;10469;42.720;23.252;2023-08-30T07:44:40;94074.72;;;28.06;93.52
20620;BME280;10469;42.720;23.252;2023-08-30T07:47:06;94076.69;;;28.29;89.92
20620;BME280;10469;42.720;23.252;2023-08-30T07:49:32;94041.25;;;28.54;89.32
20620;BME280;10469;42.720;23.252;2023-08-30T07:51:57;94066.84;;;29.04;88.54
20620;BME280;10469;42.720;23.252;2023-08-30T07:54:23;94055.41;;;30.47;82.40
20620;BME280;10469;42.720;23.252;2023-08-30T07:56:49;94062.28;;;29.45;88.48
20620;BME280;10469;42.720;23.252;2023-08-30T07:59:14;94074.34;;;28.77;91.53
20620;BME280;10469;42.720;23.252;2023-08-30T08:01:40;94082.97;;;29.28;90.45
20620;BME280;10469;42.720;23.252;2023-08-30T08:04:06;94084.25;;;28.55;89.19
20620;BME280;10469;42.720;23.252;2023-08-30T08:06:31;94074.34;;;28.77;87.69
20620;BME280;10469;42.720;23.252;2023-08-30T08:08:58;94077.50;;;29.65;87.64
20620;BME280;10469;42.720;23.252;2023-08-30T08:11:25;94067.56;;;29.94;84.59
20620;BME280;10469;42.720;23.252;2023-08-30T08:13:51;94058.91;;;30.85;81.40
20620;BME280;10469;42.720;23.252;2023-08-30T08:16:16;94073.47;;;31.40;77.14
20620;BME280;10469;42.720;23.252;2023-08-30T08:18:42;94080.91;;;30.26;80.54
20620;BME280;10469;42.720;23.252;2023-08-30T08:21:08;94079.78;;;30.31;78.20
20620;BME280;10469;42.720;23.252;2023-08-30T08:23:33;94079.31;;;29.88;83.73
20620;BME280;10469;42.720;23.252;2023-08-30T08:26:00;94078.84;;;31.15;74.97
20620;BME280;10469;42.720;23.252;2023-08-30T08:28:26;94076.09;;;31.19;78.41
20620;BME280;10469;42.720;23.252;2023-08-30T08:30:52;94082.38;;;33.60;67.93
20620;BME280;10469;42.720;23.252;2023-08-30T08:33:18;94080.53;;;32.39;66.73
20620;BME280;10469;42.720;23.252;2023-08-30T08:35:44;94083.91;;;31.79;71.27
20620;BME280;10469;42.720;23.252;2023-08-30T08:38:10;94084.25;;;30.94;70.92
20620;BME280;10469;42.720;23.252;2023-08-30T08:40:39;94086.69;;;30.14;72.96
20620;BME280;10469;42.720;23.252;2023-08-30T08:43:05;94085.56;;;31.98;69.87
20620;BME280;10469;42.720;23.252;2023-08-30T08:45:35;94085.63;;;30.66;70.62
20620;BME280;10469;42.720;23.252;2023-08-30T08:48:04;94086.59;;;30.88;69.65
20620;BME280;10469;42.720;23.252;2023-08-30T08:50:31;94074.91;;;30.17;71.05
20620;BME280;10469;42.720;23.252;2023-08-30T08:52:57;94076.38;;;30.07;75.48
20620;BME280;10469;42.720;23.252;2023-08-30T08:55:26;94059.56;;;30.19;70.47
20620;BME280;10469;42.720;23.252;2023-08-30T08:57:53;94069.22;;;30.95;70.27
20620;BME280;10469;42.720;23.252;2023-08-30T09:00:19;94061.97;;;30.72;72.56
20620;BME280;10469;42.720;23.252;2023-08-30T09:02:45;94062.25;;;32.35;66.01
20620;BME280;10469;42.720;23.252;2023-08-30T09:05:11;94059.00;;;31.86;66.27
20620;BME280;10469;42.720;23.252;2023-08-30T09:07:37;94045.22;;;32.51;67.10
20620;BME280;10469;42.720;23.252;2023-08-30T09:10:03;94043.38;;;31.35;67.03
20620;BME280;10469;42.720;23.252;2023-08-30T09:12:33;94057.88;;;32.05;64.46
20620;BME280;10469;42.720;23.252;2023-08-30T09:14:59;94056.56;;;31.78;68.62
20620;BME280;10469;42.720;23.252;2023-08-30T09:17:36;94055.56;;;32.43;66.49
20620;BME280;10469;42.720;23.252;2023-08-30T09:20:07;94048.38;;;32.28;65.14
20620;BME280;10469;42.720;23.252;2023-08-30T09:22:40;94051.44;;;31.76;69.14
20620;BME280;10469;42.720;23.252;2023-08-30T09:25:11;94050.75;;;32.04;67.20
20620;BME280;10469;42.720;23.252;2023-08-30T09:27:48;94043.97;;;31.94;68.10
20620;BME280;10469;42.720;23.252;2023-08-30T09:30:14;94035.97;;;30.33;72.99
20620;BME280;10469;42.720;23.252;2023-08-30T09:32:41;94046.38;;;31.12;71.88
20620;BME280;10469;42.720;23.252;2023-08-30T09:35:10;94057.06;;;30.55;72.68
20620;BME280;10469;42.720;23.252;2023-08-30T09:37:36;94056.22;;;31.83;68.44
20620;BME280;10469;42.720;23.252;2023-08-30T09:40:03;94054.31;;;32.15;64.12
20620;BME280;10469;42.720;23.252;2023-08-30T09:42:29;94044.41;;;32.86;61.59
20620;BME280;10469;42.720;23.252;2023-08-30T09:44:56;94038.88;;;32.36;64.74
20620;BME280;10469;42.720;23.252;2023-08-30T09:47:24;94050.78;;;32.79;68.24
20620;BME280;10469;42.720;23.252;2023-08-30T09:49:53;94042.56;;;33.81;62.45
20620;BME280;10469;42.720;23.252;2023-08-30T09:52:23;94039.28;;;32.74;66.74
20620;BME280;10469;42.720;23.252;2023-08-30T09:54:49;94036.09;;;32.32;68.91
20620;BME280;10469;42.720;23.252;2023-08-30T09:57:16;94034.78;;;33.37;63.15
20620;BME280;10469;42.720;23.252;2023-08-30T09:59:45;94026.84;;;33.35;60.08
20620;BME280;10469;42.720;23.252;2023-08-30T10:02:12;94024.22;;;32.46;62.30
20620;BME280;10469;42.720;23.252;2023-08-30T10:04:38;94022.22;;;32.32;65.92
20620;BME280;10469;42.720;23.252;2023-08-30T10:07:07;94020.47;;;31.49;69.27
20620;BME280;10469;42.720;23.252;2023-08-30T10:09:33;94022.63;;;32.66;66.53
20620;BME280;10469;42.720;23.252;2023-08-30T10:11:59;94020.66;;;32.35;63.76
20620;BME280;10469;42.720;23.252;2023-08-30T10:14:26;94017.06;;;32.95;62.90
20620;BME280;10469;42.720;23.252;2023-08-30T10:16:59;94017.31;;;30.26;71.46
20620;BME280;10469;42.720;23.252;2023-08-30T10:19:27;94015.28;;;29.79;77.03
20620;BME280;10469;42.720;23.252;2023-08-30T10:22:05;94020.47;;;28.86;82.58
20620;BME280;10469;42.720;23.252;2023-08-30T10:24:42;94009.72;;;28.51;87.77
20620;BME280;10469;42.720;23.252;2023-08-30T10:27:10;94015.28;;;28.32;86.11
20620;BME280;10469;42.720;23.252;2023-08-30T10:29:37;94016.53;;;28.34;87.36
20620;BME280;10469;42.720;23.252;2023-08-30T10:32:05;94015.69;;;27.84;89.98
20620;BME280;10469;42.720;23.252;2023-08-30T10:34:37;94001.06;;;29.43;81.11
20620;BME280;10469;42.720;23.252;2023-08-30T10:37:07;93999.97;;;29.85;76.63
20620;BME280;10469;42.720;23.252;2023-08-30T10:39:38;94000.19;;;29.35;78.75
20620;BME280;10469;42.720;23.252;2023-08-30T10:42:21;94004.22;;;30.16;75.19
20620;BME280;10469;42.720;23.252;2023-08-30T10:45:08;94002.16;;;28.74;77.60
20620;BME280;10469;42.720;23.252;2023-08-30T10:47:37;94005.41;;;28.80;80.43
20620;BME280;10469;42.720;23.252;2023-08-30T10:50:05;93986.44;;;29.39;77.06
20620;BME280;10469;42.720;23.252;2023-08-30T10:52:32;93976.78;;;29.56;77.37
20620;BME280;10469;42.720;23.252;2023-08-30T10:57:32;93986.69;;;33.58;54.69
20620;BME280;10469;42.720;23.252;2023-08-30T11:02:37;93988.53;;;32.62;61.01
20620;BME280;10469;42.720;23.252;2023-08-30T11:05:08;93984.03;;;31.47;62.77
20620;BME280;10469;42.720;23.252;2023-08-30T11:07:34;93971.13;;;33.67;55.83
20620;BME280;10469;42.720;23.252;2023-08-30T11:09:59;93973.72;;;37.33;45.84
20620;BME280;10469;42.720;23.252;2023-08-30T11:12:25;93966.38;;;36.99;38.23
20620;BME280;10469;42.720;23.252;2023-08-30T11:14:54;93962.13;;;35.97;36.50
20620;BME280;10469;42.720;23.252;2023-08-30T11:17:20;93973.06;;;36.35;36.98
20620;BME280;10469;42.720;23.252;2023-08-30T11:19:48;93956.19;;;36.42;35.11
20620;BME280;10469;42.720;23.252;2023-08-30T11:22:15;93970.56;;;36.87;34.98
20620;BME280;10469;42.720;23.252;2023-08-30T11:24:47;93962.19;;;35.63;35.63
20620;BME280;10469;42.720;23.252;2023-08-30T11:27:13;93955.63;;;36.04;32.06
20620;BME280;10469;42.720;23.252;2023-08-30T11:29:41;93938.72;;;36.38;32.96
20620;BME280;10469;42.720;23.252;2023-08-30T11:32:07;93929.25;;;37.95;30.80
20620;BME280;10469;42.720;23.252;2023-08-30T11:34:33;93934.44;;;37.00;30.73
20620;BME280;10469;42.720;23.252;2023-08-30T11:36:59;93941.41;;;36.92;30.10
20620;BME280;10469;42.720;23.252;2023-08-30T11:39:28;93936.38;;;37.03;30.19
20620;BME280;10469;42.720;23.252;2023-08-30T11:41:54;93934.56;;;35.99;30.55
20620;BME280;10469;42.720;23.252;2023-08-30T11:44:23;93931.16;;;35.57;31.56
20620;BME280;10469;42.720;23.252;2023-08-30T11:46:56;93930.34;;;38.01;28.45
20620;BME280;10469;42.720;23.252;2023-08-30T11:49:22;93931.56;;;36.37;29.45
20620;BME280;10469;42.720;23.252;2023-08-30T11:51:48;93917.81;;;36.93;29.06
20620;BME280;10469;42.720;23.252;2023-08-30T11:54:14;93916.50;;;38.43;28.67
20620;BME280;10469;42.720;23.252;2023-08-30T11:56:40;93928.41;;;36.35;29.95
20620;BME280;10469;42.720;23.252;2023-08-30T11:59:05;93904.81;;;35.01;31.40
20620;BME280;10469;42.720;23.252;2023-08-30T12:01:32;93913.25;;;34.93;32.86
20620;BME280;10469;42.720;23.252;2023-08-30T12:03:58;93923.25;;;34.01;33.62
20620;BME280;10469;42.720;23.252;2023-08-30T12:06:23;93926.34;;;33.55;36.11
20620;BME280;10469;42.720;23.252;2023-08-30T12:08:57;93913.19;;;33.59;34.60
20620;BME280;10469;42.720;23.252;2023-08-30T12:11:23;93918.31;;;32.83;35.27
20620;BME280;10469;42.720;23.252;2023-08-30T12:13:48;93917.53;;;32.76;37.11
20620;BME280;10469;42.720;23.252;2023-08-30T12:16:17;93903.38;;;32.02;37.53
20620;BME280;10469;42.720;23.252;2023-08-30T12:18:43;93912.06;;;31.90;37.32
20620;BME280;10469;42.720;23.252;2023-08-30T12:21:09;93897.00;;;31.66;37.24
20620;BME280;10469;42.720;23.252;2023-08-30T12:23:34;93893.38;;;31.33;36.48
20620;BME280;10469;42.720;23.252;2023-08-30T12:26:05;93881.94;;;31.35;36.55
20620;BME280;10469;42.720;23.252;2023-08-30T12:28:33;93897.84;;;30.68;37.91
20620;BME280;10469;42.720;23.252;2023-08-30T12:30:59;93897.97;;;30.90;38.22
20620;BME280;10469;42.720;23.252;2023-08-30T12:33:25;93880.19;;;30.87;36.00
20620;BME280;10469;42.720;23.252;2023-08-30T12:35:51;93884.91;;;30.87;36.72
20620;BME280;10469;42.720;23.252;2023-08-30T12:38:17;93890.88;;;30.99;36.06
20620;BME280;10469;42.720;23.252;2023-08-30T12:40:45;93888.75;;;30.64;35.88
20620;BME280;10469;42.720;23.252;2023-08-30T12:43:11;93875.25;;;30.48;35.44
20620;BME280;10469;42.720;23.252;2023-08-30T12:45:37;93882.00;;;30.58;34.03
20620;BME280;10469;42.720;23.252;2023-08-30T12:48:03;93874.09;;;30.57;34.22
20620;BME280;10469;42.720;23.252;2023-08-30T12:50:29;93883.78;;;30.18;35.33
20620;BME280;10469;42.720;23.252;2023-08-30T12:52:55;93876.00;;;30.42;34.57
20620;BME280;10469;42.720;23.252;2023-08-30T12:55:21;93863.31;;;30.34;34.62